sensor_id;sensor_type;location;lat;lon;timestamp;P1;durP1;ratioP1;P2;durP2;ratioP2
33421;SDS011;19763;55.798;37.782;2022-09-30T00:01:41;25.38;;;19.77;;
33421;SDS011;19763;55.798;37.782;2022-09-30T00:04:22;24.15;;;20.10;;
33421;SDS011;19763;55.798;37.782;2022-09-30T00:06:51;24.27;;;19.52;;
33421;SDS011;19763;55.798;37.782;2022-09-30T00:09:18;23.35;;;18.58;;
33421;SDS011;19763;55.798;37.782;2022-09-30T00:11:45;26.77;;;20.30;;
33421;SDS011;19763;55.798;37.782;2022-09-30T00:14:19;26.83;;;19.63;;
33421;SDS011;19763;55.798;37.782;2022-09-30T00:16:46;23.92;;;19.65;;
33421;SDS011;19763;55.798;37.782;2022-09-30T00:19:12;22.88;;;17.98;;
33421;SDS011;19763;55.798;37.782;2022-09-30T00:21:38;21.70;;;17.77;;
33421;SDS011;19763;55.798;37.782;2022-09-30T00:24:05;19.58;;;16.27;;
33421;SDS011;19763;55.798;37.782;2022-09-30T00:26:31;23.77;;;17.95;;
33421;SDS011;19763;55.798;37.782;2022-09-30T00:28:58;23.27;;;18.33;;
33421;SDS011;19763;55.798;37.782;2022-09-30T00:31:25;22.50;;;17.83;;
33421;SDS011;19763;55.798;37.782;2022-09-30T00:33:55;24.98;;;20.15;;
33421;SDS011;19763;55.798;37.782;2022-09-30T00:36:37;23.55;;;19.42;;
33421;SDS011;19763;55.798;37.782;2022-09-30T00:39:03;22.58;;;17.85;;
33421;SDS011;19763;55.798;37.782;2022-09-30T00:41:31;21.00;;;17.77;;
33421;SDS011;19763;55.798;37.782;2022-09-30T00:43:57;25.25;;;18.90;;
33421;SDS011;19763;55.798;37.782;2022-09-30T00:46:35;22.30;;;18.83;;
33421;SDS011;19763;55.798;37.782;2022-09-30T00:49:10;22.65;;;18.02;;
33421;SDS011;19763;55.798;37.782;2022-09-30T00:51:41;22.60;;;17.13;;
33421;SDS011;19763;55.798;37.782;2022-09-30T00:54:13;21.08;;;17.80;;
33421;SDS011;19763;55.798;37.782;2022-09-30T00:56:45;21.27;;;17.40;;
33421;SDS011;19763;55.798;37.782;2022-09-30T01:01:49;18.05;;;16.08;;
33421;SDS011;19763;55.798;37.782;2022-09-30T01:04:17;21.83;;;17.67;;
33421;SDS011;19763;55.798;37.782;2022-09-30T01:06:46;20.48;;;17.27;;
33421;SDS011;19763;55.798;37.782;2022-09-30T01:09:13;23.75;;;18.08;;
33421;SDS011;19763;55.798;37.782;2022-09-30T01:11:38;22.17;;;18.63;;
33421;SDS011;19763;55.798;37.782;2022-09-30T01:14:06;20.52;;;16.83;;
33421;SDS011;19763;55.798;37.782;2022-09-30T01:27:08;19.10;;;16.38;;
33421;SDS011;19763;55.798;37.782;2022-09-30T01:38:26;21.63;;;17.65;;
33421;SDS011;19763;55.798;37.782;2022-09-30T01:41:07;24.23;;;18.92;;
33421;SDS011;19763;55.798;37.782;2022-09-30T01:43:50;25.10;;;18.42;;
33421;SDS011;19763;55.798;37.782;2022-09-30T01:51:36;25.30;;;20.42;;
33421;SDS011;19763;55.798;37.782;2022-09-30T01:57:19;25.70;;;19.80;;
33421;SDS011;19763;55.798;37.782;2022-09-30T01:59:53;21.38;;;18.05;;
33421;SDS011;19763;55.798;37.782;2022-09-30T02:02:30;22.85;;;19.00;;
33421;SDS011;19763;55.798;37.782;2022-09-30T02:05:11;25.45;;;19.65;;
33421;SDS011;19763;55.798;37.782;2022-09-30T02:07:44;23.75;;;19.50;;
33421;SDS011;19763;55.798;37.782;2022-09-30T02:12:45;24.98;;;19.50;;
33421;SDS011;19763;55.798;37.782;2022-09-30T02:15:15;24.23;;;20.08;;
33421;SDS011;19763;55.798;37.782;2022-09-30T02:17:51;23.83;;;19.48;;
33421;SDS011;19763;55.798;37.782;2022-09-30T02:20:40;23.73;;;19.10;;
33421;SDS011;19763;55.798;37.782;2022-09-30T02:23:12;24.30;;;19.70;;
33421;SDS011;19763;55.798;37.782;2022-09-30T02:25:49;23.77;;;18.23;;
33421;SDS011;19763;55.798;37.782;2022-09-30T02:28:21;23.67;;;18.67;;
33421;SDS011;19763;55.798;37.782;2022-09-30T02:30:51;24.05;;;18.77;;
33421;SDS011;19763;55.798;37.782;2022-09-30T02:33:43;23.77;;;19.05;;
33421;SDS011;19763;55.798;37.782;2022-09-30T02:36:16;23.67;;;19.05;;
33421;SDS011;19763;55.798;37.782;2022-09-30T02:39:40;22.58;;;18.58;;
33421;SDS011;19763;55.798;37.782;2022-09-30T02:41:57;24.30;;;18.58;;
33421;SDS011;19763;55.798;37.782;2022-09-30T02:44:33;22.42;;;17.90;;
33421;SDS011;19763;55.798;37.782;2022-09-30T02:47:43;24.50;;;19.83;;
33421;SDS011;19763;55.798;37.782;2022-09-30T02:49:55;24.80;;;19.73;;
33421;SDS011;19763;55.798;37.782;2022-09-30T02:55:34;25.38;;;19.05;;
33421;SDS011;19763;55.798;37.782;2022-09-30T02:58:23;24.35;;;19.55;;
33421;SDS011;19763;55.798;37.782;2022-09-30T03:00:50;21.85;;;17.55;;
33421;SDS011;19763;55.798;37.782;2022-09-30T03:03:18;24.15;;;18.70;;
33421;SDS011;19763;55.798;37.782;2022-09-30T03:05:45;23.52;;;18.15;;
33421;SDS011;19763;55.798;37.782;2022-09-30T03:08:12;24.02;;;18.88;;
33421;SDS011;19763;55.798;37.782;2022-09-30T03:10:38;21.35;;;17.98;;
33421;SDS011;19763;55.798;37.782;2022-09-30T03:35:59;24.17;;;18.98;;
33421;SDS011;19763;55.798;37.782;2022-09-30T03:38:13;21.63;;;17.48;;
33421;SDS011;19763;55.798;37.782;2022-09-30T03:48:31;24.98;;;18.75;;
33421;SDS011;19763;55.798;37.782;2022-09-30T03:50:59;22.00;;;18.00;;
33421;SDS011;19763;55.798;37.782;2022-09-30T03:53:25;20.85;;;16.80;;
33421;SDS011;19763;55.798;37.782;2022-09-30T03:55:52;20.85;;;17.33;;
33421;SDS011;19763;55.798;37.782;2022-09-30T03:58:19;23.45;;;18.70;;
33421;SDS011;19763;55.798;37.782;2022-09-30T04:00:51;25.63;;;18.42;;
33421;SDS011;19763;55.798;37.782;2022-09-30T04:03:19;21.85;;;18.73;;
33421;SDS011;19763;55.798;37.782;2022-09-30T04:05:46;26.63;;;18.80;;
33421;SDS011;19763;55.798;37.782;2022-09-30T04:08:13;23.30;;;17.17;;
33421;SDS011;19763;55.798;37.782;2022-09-30T04:10:39;20.90;;;17.17;;
33421;SDS011;19763;55.798;37.782;2022-09-30T04:13:06;24.17;;;19.67;;
33421;SDS011;19763;55.798;37.782;2022-09-30T04:15:33;27.88;;;20.27;;
33421;SDS011;19763;55.798;37.782;2022-09-30T04:18:00;26.35;;;20.58;;
33421;SDS011;19763;55.798;37.782;2022-09-30T04:20:28;27.95;;;20.63;;
33421;SDS011;19763;55.798;37.782;2022-09-30T04:22:55;25.10;;;21.00;;
33421;SDS011;19763;55.798;37.782;2022-09-30T04:25:22;26.77;;;20.73;;
33421;SDS011;19763;55.798;37.782;2022-09-30T04:27:47;25.60;;;19.88;;
33421;SDS011;19763;55.798;37.782;2022-09-30T04:30:13;26.98;;;20.95;;
33421;SDS011;19763;55.798;37.782;2022-09-30T04:32:41;29.45;;;21.58;;
33421;SDS011;19763;55.798;37.782;2022-09-30T04:35:10;25.38;;;20.85;;
33421;SDS011;19763;55.798;37.782;2022-09-30T04:37:40;28.20;;;20.55;;
33421;SDS011;19763;55.798;37.782;2022-09-30T04:40:07;27.17;;;20.17;;
33421;SDS011;19763;55.798;37.782;2022-09-30T04:42:34;26.80;;;20.23;;
33421;SDS011;19763;55.798;37.782;2022-09-30T04:45:00;25.08;;;18.45;;
33421;SDS011;19763;55.798;37.782;2022-09-30T04:47:28;24.83;;;18.35;;
33421;SDS011;19763;55.798;37.782;2022-09-30T04:49:54;24.35;;;18.92;;
33421;SDS011;19763;55.798;37.782;2022-09-30T04:52:20;25.55;;;19.55;;
33421;SDS011;19763;55.798;37.782;2022-09-30T04:54:46;25.52;;;19.98;;
33421;SDS011;19763;55.798;37.782;2022-09-30T04:57:12;25.85;;;19.83;;
33421;SDS011;19763;55.798;37.782;2022-09-30T04:59:38;25.75;;;20.52;;
33421;SDS011;19763;55.798;37.782;2022-09-30T05:02:04;23.00;;;18.23;;
33421;SDS011;19763;55.798;37.782;2022-09-30T05:04:29;23.65;;;18.98;;
33421;SDS011;19763;55.798;37.782;2022-09-30T05:07:00;26.52;;;20.00;;
33421;SDS011;19763;55.798;37.782;2022-09-30T05:09:28;29.85;;;21.80;;
33421;SDS011;19763;55.798;37.782;2022-09-30T05:11:53;26.92;;;21.48;;
33421;SDS011;19763;55.798;37.782;2022-09-30T05:14:19;27.42;;;20.23;;
33421;SDS011;19763;55.798;37.782;2022-09-30T05:16:44;29.90;;;20.48;;
33421;SDS011;19763;55.798;37.782;2022-09-30T05:19:10;23.85;;;20.23;;
33421;SDS011;19763;55.798;37.782;2022-09-30T05:21:36;23.95;;;19.27;;
33421;SDS011;19763;55.798;37.782;2022-09-30T05:24:01;24.17;;;18.38;;
33421;SDS011;19763;55.798;37.782;2022-09-30T05:26:27;24.05;;;19.13;;
33421;SDS011;19763;55.798;37.782;2022-09-30T05:28:53;23.80;;;20.08;;
33421;SDS011;19763;55.798;37.782;2022-09-30T05:31:19;22.88;;;20.13;;
33421;SDS011;19763;55.798;37.782;2022-09-30T05:33:47;25.90;;;21.35;;
33421;SDS011;19763;55.798;37.782;2022-09-30T05:36:14;25.52;;;21.02;;
33421;SDS011;19763;55.798;37.782;2022-09-30T05:38:40;25.60;;;21.10;;
33421;SDS011;19763;55.798;37.782;2022-09-30T05:41:09;25.80;;;21.45;;
33421;SDS011;19763;55.798;37.782;2022-09-30T05:43:39;28.67;;;21.95;;
33421;SDS011;19763;55.798;37.782;2022-09-30T05:46:07;28.70;;;21.48;;
33421;SDS011;19763;55.798;37.782;2022-09-30T05:48:33;25.52;;;21.90;;
33421;SDS011;19763;55.798;37.782;2022-09-30T05:50:59;27.85;;;21.65;;
33421;SDS011;19763;55.798;37.782;2022-09-30T05:53:26;22.67;;;18.65;;
33421;SDS011;19763;55.798;37.782;2022-09-30T05:55:52;23.05;;;18.88;;
33421;SDS011;19763;55.798;37.782;2022-09-30T05:58:18;21.35;;;16.67;;
33421;SDS011;19763;55.798;37.782;2022-09-30T06:00:45;22.27;;;17.17;;
33421;SDS011;19763;55.798;37.782;2022-09-30T06:03:12;21.48;;;18.25;;
33421;SDS011;19763;55.798;37.782;2022-09-30T06:05:38;21.55;;;17.98;;
33421;SDS011;19763;55.798;37.782;2022-09-30T06:08:04;20.35;;;16.67;;
33421;SDS011;19763;55.798;37.782;2022-09-30T06:10:34;20.27;;;17.75;;
33421;SDS011;19763;55.798;37.782;2022-09-30T06:13:02;18.92;;;16.92;;
33421;SDS011;19763;55.798;37.782;2022-09-30T06:15:28;22.65;;;18.20;;
33421;SDS011;19763;55.798;37.782;2022-09-30T06:17:54;21.33;;;17.95;;
33421;SDS011;19763;55.798;37.782;2022-09-30T06:20:20;19.30;;;17.23;;
33421;SDS011;19763;55.798;37.782;2022-09-30T06:22:46;22.35;;;18.10;;
33421;SDS011;19763;55.798;37.782;2022-09-30T06:25:12;22.30;;;18.50;;
33421;SDS011;19763;55.798;37.782;2022-09-30T06:27:38;22.48;;;18.10;;
33421;SDS011;19763;55.798;37.782;2022-09-30T06:30:08;17.55;;;15.15;;
33421;SDS011;19763;55.798;37.782;2022-09-30T06:32:34;19.40;;;16.17;;
33421;SDS011;19763;55.798;37.782;2022-09-30T06:35:00;18.17;;;16.05;;
33421;SDS011;19763;55.798;37.782;2022-09-30T06:37:29;19.00;;;15.60;;
33421;SDS011;19763;55.798;37.782;2022-09-30T06:39:55;18.73;;;15.02;;
33421;SDS011;19763;55.798;37.782;2022-09-30T06:42:20;17.05;;;15.30;;
33421;SDS011;19763;55.798;37.782;2022-09-30T06:44:49;16.25;;;14.55;;
33421;SDS011;19763;55.798;37.782;2022-09-30T06:47:15;16.05;;;14.40;;
33421;SDS011;19763;55.798;37.782;2022-09-30T06:49:41;16.00;;;14.38;;
33421;SDS011;19763;55.798;37.782;2022-09-30T06:52:08;16.60;;;14.80;;
33421;SDS011;19763;55.798;37.782;2022-09-30T06:54:37;15.55;;;13.68;;
33421;SDS011;19763;55.798;37.782;2022-09-30T06:57:08;16.77;;;14.05;;
33421;SDS011;19763;55.798;37.782;2022-09-30T06:59:34;15.02;;;13.32;;
33421;SDS011;19763;55.798;37.782;2022-09-30T07:01:59;14.52;;;12.98;;
33421;SDS011;19763;55.798;37.782;2022-09-30T07:04:25;18.00;;;12.82;;
33421;SDS011;19763;55.798;37.782;2022-09-30T07:06:51;15.30;;;12.45;;
33421;SDS011;19763;55.798;37.782;2022-09-30T07:09:17;17.92;;;12.93;;
33421;SDS011;19763;55.798;37.782;2022-09-30T07:11:43;17.08;;;13.27;;
33421;SDS011;19763;55.798;37.782;2022-09-30T07:14:08;23.42;;;13.50;;
33421;SDS011;19763;55.798;37.782;2022-09-30T07:16:34;13.07;;;11.73;;
33421;SDS011;19763;55.798;37.782;2022-09-30T07:19:00;15.40;;;12.20;;
33421;SDS011;19763;55.798;37.782;2022-09-30T07:21:28;13.68;;;12.27;;
33421;SDS011;19763;55.798;37.782;2022-09-30T07:23:55;16.65;;;12.73;;
33421;SDS011;19763;55.798;37.782;2022-09-30T07:26:23;17.50;;;12.70;;
33421;SDS011;19763;55.798;37.782;2022-09-30T07:28:49;14.68;;;12.98;;
33421;SDS011;19763;55.798;37.782;2022-09-30T07:31:16;14.00;;;12.55;;
33421;SDS011;19763;55.798;37.782;2022-09-30T07:33:49;14.85;;;12.73;;
33421;SDS011;19763;55.798;37.782;2022-09-30T07:36:20;18.45;;;12.45;;
33421;SDS011;19763;55.798;37.782;2022-09-30T07:38:51;16.63;;;12.32;;
33421;SDS011;19763;55.798;37.782;2022-09-30T07:41:19;16.52;;;12.57;;
33421;SDS011;19763;55.798;37.782;2022-09-30T07:43:49;16.13;;;13.57;;
33421;SDS011;19763;55.798;37.782;2022-09-30T07:46:16;15.20;;;12.70;;
33421;SDS011;19763;55.798;37.782;2022-09-30T07:48:45;14.10;;;12.45;;
33421;SDS011;19763;55.798;37.782;2022-09-30T07:51:18;15.18;;;13.52;;
33421;SDS011;19763;55.798;37.782;2022-09-30T07:54:11;17.05;;;12.75;;
33421;SDS011;19763;55.798;37.782;2022-09-30T07:56:41;15.98;;;12.68;;
33421;SDS011;19763;55.798;37.782;2022-09-30T07:59:09;20.05;;;14.23;;
33421;SDS011;19763;55.798;37.782;2022-09-30T08:01:35;16.50;;;13.40;;
33421;SDS011;19763;55.798;37.782;2022-09-30T08:04:02;16.67;;;14.10;;
33421;SDS011;19763;55.798;37.782;2022-09-30T08:06:30;14.90;;;13.10;;
33421;SDS011;19763;55.798;37.782;2022-09-30T08:09:00;16.50;;;12.15;;
33421;SDS011;19763;55.798;37.782;2022-09-30T08:11:25;16.48;;;13.50;;
33421;SDS011;19763;55.798;37.782;2022-09-30T08:13:52;15.88;;;13.18;;
33421;SDS011;19763;55.798;37.782;2022-09-30T08:16:21;17.70;;;13.88;;
33421;SDS011;19763;55.798;37.782;2022-09-30T08:18:52;18.25;;;14.30;;
33421;SDS011;19763;55.798;37.782;2022-09-30T08:21:18;17.27;;;14.80;;
33421;SDS011;19763;55.798;37.782;2022-09-30T08:23:44;16.48;;;13.75;;
33421;SDS011;19763;55.798;37.782;2022-09-30T08:26:10;14.98;;;13.00;;
33421;SDS011;19763;55.798;37.782;2022-09-30T08:28:37;23.25;;;15.63;;
33421;SDS011;19763;55.798;37.782;2022-09-30T08:33:30;18.27;;;15.70;;
33421;SDS011;19763;55.798;37.782;2022-09-30T08:36:00;20.98;;;15.55;;
33421;SDS011;19763;55.798;37.782;2022-09-30T08:38:33;17.92;;;14.82;;
33421;SDS011;19763;55.798;37.782;2022-09-30T08:44:00;17.33;;;14.85;;
33421;SDS011;19763;55.798;37.782;2022-09-30T08:49:35;19.08;;;16.10;;
33421;SDS011;19763;55.798;37.782;2022-09-30T08:52:14;20.42;;;15.95;;
33421;SDS011;19763;55.798;37.782;2022-09-30T08:55:02;21.88;;;16.17;;
33421;SDS011;19763;55.798;37.782;2022-09-30T08:57:34;20.00;;;14.75;;
33421;SDS011;19763;55.798;37.782;2022-09-30T09:00:03;19.38;;;16.00;;
33421;SDS011;19763;55.798;37.782;2022-09-30T09:02:39;20.85;;;16.95;;
33421;SDS011;19763;55.798;37.782;2022-09-30T09:05:13;20.70;;;17.58;;
33421;SDS011;19763;55.798;37.782;2022-09-30T09:13:52;24.95;;;17.88;;
33421;SDS011;19763;55.798;37.782;2022-09-30T09:19:15;22.65;;;19.00;;
33421;SDS011;19763;55.798;37.782;2022-09-30T09:24:16;23.75;;;17.35;;
33421;SDS011;19763;55.798;37.782;2022-09-30T09:26:45;23.33;;;18.30;;
33421;SDS011;19763;55.798;37.782;2022-09-30T09:29:19;22.58;;;18.10;;
33421;SDS011;19763;55.798;37.782;2022-09-30T09:31:54;22.13;;;18.27;;
33421;SDS011;19763;55.798;37.782;2022-09-30T09:34:21;23.48;;;17.92;;
33421;SDS011;19763;55.798;37.782;2022-09-30T09:44:48;27.77;;;18.48;;
33421;SDS011;19763;55.798;37.782;2022-09-30T09:47:19;21.73;;;16.77;;
33421;SDS011;19763;55.798;37.782;2022-09-30T09:49:46;21.95;;;16.60;;
33421;SDS011;19763;55.798;37.782;2022-09-30T09:55:22;21.27;;;17.55;;
33421;SDS011;19763;55.798;37.782;2022-09-30T09:58:04;23.80;;;18.60;;
33421;SDS011;19763;55.798;37.782;2022-09-30T10:00:31;26.40;;;19.00;;
33421;SDS011;19763;55.798;37.782;2022-09-30T10:05:45;21.85;;;18.15;;
33421;SDS011;19763;55.798;37.782;2022-09-30T10:08:24;24.23;;;19.20;;
33421;SDS011;19763;55.798;37.782;2022-09-30T10:10:51;21.60;;;16.70;;
33421;SDS011;19763;55.798;37.782;2022-09-30T10:16:09;22.38;;;18.67;;
33421;SDS011;19763;55.798;37.782;2022-09-30T10:18:59;23.05;;;18.17;;
33421;SDS011;19763;55.798;37.782;2022-09-30T10:21:28;24.58;;;18.02;;
33421;SDS011;19763;55.798;37.782;2022-09-30T10:23:55;22.77;;;18.33;;
33421;SDS011;19763;55.798;37.782;2022-09-30T10:26:27;24.85;;;19.30;;
33421;SDS011;19763;55.798;37.782;2022-09-30T10:28:54;23.75;;;19.00;;
33421;SDS011;19763;55.798;37.782;2022-09-30T10:31:37;24.00;;;19.65;;
33421;SDS011;19763;55.798;37.782;2022-09-30T10:36:48;23.55;;;17.17;;
33421;SDS011;19763;55.798;37.782;2022-09-30T10:39:31;22.17;;;19.20;;
33421;SDS011;19763;55.798;37.782;2022-09-30T10:44:30;25.63;;;18.83;;
33421;SDS011;19763;55.798;37.782;2022-09-30T10:47:00;26.50;;;20.48;;
33421;SDS011;19763;55.798;37.782;2022-09-30T10:49:29;25.98;;;20.67;;
33421;SDS011;19763;55.798;37.782;2022-09-30T10:52:02;25.88;;;20.25;;
33421;SDS011;19763;55.798;37.782;2022-09-30T10:57:34;24.23;;;18.88;;
33421;SDS011;19763;55.798;37.782;2022-09-30T11:00:03;24.85;;;20.58;;
33421;SDS011;19763;55.798;37.782;2022-09-30T11:02:38;22.98;;;19.65;;
33421;SDS011;19763;55.798;37.782;2022-09-30T11:05:20;26.23;;;19.95;;
33421;SDS011;19763;55.798;37.782;2022-09-30T11:10:40;25.77;;;20.42;;
33421;SDS011;19763;55.798;37.782;2022-09-30T11:18:55;25.88;;;20.83;;
33421;SDS011;19763;55.798;37.782;2022-09-30T11:24:44;24.85;;;20.45;;
33421;SDS011;19763;55.798;37.782;2022-09-30T11:43:46;21.27;;;17.55;;
33421;SDS011;19763;55.798;37.782;2022-09-30T11:46:23;25.50;;;18.83;;
33421;SDS011;19763;55.798;37.782;2022-09-30T11:57:18;20.65;;;17.00;;
33421;SDS011;19763;55.798;37.782;2022-09-30T11:59:52;17.90;;;15.75;;
33421;SDS011;19763;55.798;37.782;2022-09-30T12:02:47;21.73;;;17.13;;
33421;SDS011;19763;55.798;37.782;2022-09-30T12:05:55;25.63;;;17.25;;
33421;SDS011;19763;55.798;37.782;2022-09-30T12:08:30;20.58;;;16.80;;
33421;SDS011;19763;55.798;37.782;2022-09-30T12:13:38;18.17;;;15.50;;
33421;SDS011;19763;55.798;37.782;2022-09-30T12:16:16;22.63;;;16.38;;
33421;SDS011;19763;55.798;37.782;2022-09-30T12:21:53;21.13;;;15.90;;
33421;SDS011;19763;55.798;37.782;2022-09-30T12:24:41;18.58;;;15.30;;
33421;SDS011;19763;55.798;37.782;2022-09-30T12:27:31;17.45;;;14.55;;
33421;SDS011;19763;55.798;37.782;2022-09-30T12:38:08;17.98;;;15.13;;
33421;SDS011;19763;55.798;37.782;2022-09-30T12:44:09;18.30;;;14.82;;
33421;SDS011;19763;55.798;37.782;2022-09-30T12:49:32;19.40;;;15.10;;
33421;SDS011;19763;55.798;37.782;2022-09-30T12:52:05;20.30;;;15.93;;
33421;SDS011;19763;55.798;37.782;2022-09-30T12:54:38;15.52;;;13.43;;
33421;SDS011;19763;55.798;37.782;2022-09-30T12:57:16;20.00;;;15.75;;
33421;SDS011;19763;55.798;37.782;2022-09-30T13:00:06;18.88;;;16.00;;
33421;SDS011;19763;55.798;37.782;2022-09-30T13:02:40;16.80;;;14.55;;
33421;SDS011;19763;55.798;37.782;2022-09-30T13:10:56;19.15;;;14.98;;
33421;SDS011;19763;55.798;37.782;2022-09-30T13:15:56;17.75;;;15.32;;
33421;SDS011;19763;55.798;37.782;2022-09-30T13:23:35;18.25;;;14.57;;
33421;SDS011;19763;55.798;37.782;2022-09-30T13:26:00;16.88;;;14.05;;
33421;SDS011;19763;55.798;37.782;2022-09-30T13:28:28;27.95;;;16.08;;
33421;SDS011;19763;55.798;37.782;2022-09-30T13:31:14;22.35;;;14.35;;
33421;SDS011;19763;55.798;37.782;2022-09-30T13:36:28;20.42;;;14.48;;
33421;SDS011;19763;55.798;37.782;2022-09-30T13:39:24;20.08;;;15.18;;
33421;SDS011;19763;55.798;37.782;2022-09-30T13:47:58;18.40;;;15.90;;
33421;SDS011;19763;55.798;37.782;2022-09-30T13:55:52;20.88;;;15.30;;
33421;SDS011;19763;55.798;37.782;2022-09-30T14:03:47;20.05;;;15.95;;
33421;SDS011;19763;55.798;37.782;2022-09-30T14:11:52;19.45;;;15.50;;
33421;SDS011;19763;55.798;37.782;2022-09-30T14:20:20;16.83;;;14.25;;
33421;SDS011;19763;55.798;37.782;2022-09-30T14:23:14;20.63;;;16.40;;
33421;SDS011;19763;55.798;37.782;2022-09-30T14:25:51;18.38;;;15.13;;
33421;SDS011;19763;55.798;37.782;2022-09-30T14:28:31;21.40;;;15.52;;
33421;SDS011;19763;55.798;37.782;2022-09-30T14:31:00;19.35;;;16.00;;
33421;SDS011;19763;55.798;37.782;2022-09-30T14:33:33;18.35;;;14.95;;
33421;SDS011;19763;55.798;37.782;2022-09-30T14:36:01;19.30;;;15.82;;
33421;SDS011;19763;55.798;37.782;2022-09-30T14:38:31;20.55;;;15.55;;
33421;SDS011;19763;55.798;37.782;2022-09-30T14:41:02;19.35;;;13.93;;
33421;SDS011;19763;55.798;37.782;2022-09-30T14:43:34;18.85;;;14.38;;
33421;SDS011;19763;55.798;37.782;2022-09-30T14:46:06;19.75;;;14.73;;
33421;SDS011;19763;55.798;37.782;2022-09-30T14:48:40;22.75;;;16.60;;
33421;SDS011;19763;55.798;37.782;2022-09-30T14:51:11;19.10;;;16.75;;
33421;SDS011;19763;55.798;37.782;2022-09-30T14:53:54;23.55;;;18.10;;
33421;SDS011;19763;55.798;37.782;2022-09-30T14:58:54;20.75;;;16.20;;
33421;SDS011;19763;55.798;37.782;2022-09-30T15:01:22;27.48;;;17.15;;
33421;SDS011;19763;55.798;37.782;2022-09-30T15:04:00;19.88;;;16.55;;
33421;SDS011;19763;55.798;37.782;2022-09-30T15:06:34;21.55;;;16.75;;
33421;SDS011;19763;55.798;37.782;2022-09-30T15:11:46;20.92;;;16.63;;
33421;SDS011;19763;55.798;37.782;2022-09-30T15:14:16;25.75;;;16.92;;
33421;SDS011;19763;55.798;37.782;2022-09-30T15:16:47;19.50;;;15.93;;
33421;SDS011;19763;55.798;37.782;2022-09-30T15:19:20;19.75;;;16.42;;
33421;SDS011;19763;55.798;37.782;2022-09-30T15:21:55;21.25;;;15.55;;
33421;SDS011;19763;55.798;37.782;2022-09-30T15:24:26;22.10;;;17.65;;
33421;SDS011;19763;55.798;37.782;2022-09-30T15:26:55;22.40;;;16.30;;
33421;SDS011;19763;55.798;37.782;2022-09-30T15:29:22;23.00;;;17.05;;
33421;SDS011;19763;55.798;37.782;2022-09-30T15:31:53;21.50;;;17.50;;
33421;SDS011;19763;55.798;37.782;2022-09-30T15:34:21;21.95;;;17.63;;
33421;SDS011;19763;55.798;37.782;2022-09-30T15:36:59;20.27;;;16.73;;
33421;SDS011;19763;55.798;37.782;2022-09-30T15:39:34;23.67;;;18.38;;
33421;SDS011;19763;55.798;37.782;2022-09-30T15:45:04;25.30;;;17.85;;
33421;SDS011;19763;55.798;37.782;2022-09-30T15:47:52;21.00;;;16.83;;
33421;SDS011;19763;55.798;37.782;2022-09-30T15:53:19;23.02;;;18.38;;
33421;SDS011;19763;55.798;37.782;2022-09-30T15:55:56;19.55;;;17.08;;
33421;SDS011;19763;55.798;37.782;2022-09-30T15:58:30;24.13;;;17.15;;
33421;SDS011;19763;55.798;37.782;2022-09-30T16:06:23;20.70;;;17.85;;
33421;SDS011;19763;55.798;37.782;2022-09-30T16:09:44;22.27;;;17.63;;
33421;SDS011;19763;55.798;37.782;2022-09-30T16:15:15;22.40;;;17.48;;
33421;SDS011;19763;55.798;37.782;2022-09-30T16:17:47;19.73;;;17.63;;
33421;SDS011;19763;55.798;37.782;2022-09-30T16:27:37;23.70;;;19.65;;
33421;SDS011;19763;55.798;37.782;2022-09-30T16:30:04;21.67;;;18.67;;
33421;SDS011;19763;55.798;37.782;2022-09-30T16:32:34;22.75;;;18.60;;
33421;SDS011;19763;55.798;37.782;2022-09-30T16:35:02;26.02;;;21.67;;
33421;SDS011;19763;55.798;37.782;2022-09-30T16:37:29;21.65;;;19.30;;
33421;SDS011;19763;55.798;37.782;2022-09-30T16:39:55;25.08;;;19.90;;
33421;SDS011;19763;55.798;37.782;2022-09-30T16:42:26;23.00;;;19.17;;
33421;SDS011;19763;55.798;37.782;2022-09-30T16:44:51;29.10;;;20.65;;
33421;SDS011;19763;55.798;37.782;2022-09-30T16:47:17;24.08;;;19.50;;
33421;SDS011;19763;55.798;37.782;2022-09-30T16:49:45;22.52;;;19.52;;
33421;SDS011;19763;55.798;37.782;2022-09-30T16:52:11;27.85;;;21.40;;
33421;SDS011;19763;55.798;37.782;2022-09-30T16:54:37;24.70;;;20.85;;
33421;SDS011;19763;55.798;37.782;2022-09-30T16:57:03;25.67;;;21.30;;
33421;SDS011;19763;55.798;37.782;2022-09-30T16:59:29;25.17;;;21.17;;
33421;SDS011;19763;55.798;37.782;2022-09-30T17:01:57;26.83;;;20.90;;
33421;SDS011;19763;55.798;37.782;2022-09-30T17:04:24;27.05;;;21.55;;
33421;SDS011;19763;55.798;37.782;2022-09-30T17:06:51;25.92;;;21.95;;
33421;SDS011;19763;55.798;37.782;2022-09-30T17:09:17;27.50;;;21.05;;
33421;SDS011;19763;55.798;37.782;2022-09-30T17:11:44;25.88;;;21.08;;
33421;SDS011;19763;55.798;37.782;2022-09-30T17:14:09;24.85;;;19.95;;
33421;SDS011;19763;55.798;37.782;2022-09-30T17:16:35;26.67;;;20.63;;
33421;SDS011;19763;55.798;37.782;2022-09-30T17:19:01;25.08;;;20.95;;
33421;SDS011;19763;55.798;37.782;2022-09-30T17:21:27;25.98;;;21.23;;
33421;SDS011;19763;55.798;37.782;2022-09-30T17:23:53;29.30;;;22.60;;
33421;SDS011;19763;55.798;37.782;2022-09-30T17:26:19;26.95;;;22.17;;
33421;SDS011;19763;55.798;37.782;2022-09-30T17:28:45;27.45;;;21.52;;
33421;SDS011;19763;55.798;37.782;2022-09-30T17:31:10;26.48;;;22.48;;
33421;SDS011;19763;55.798;37.782;2022-09-30T17:33:37;31.73;;;22.80;;
33421;SDS011;19763;55.798;37.782;2022-09-30T17:36:05;24.13;;;21.08;;
33421;SDS011;19763;55.798;37.782;2022-09-30T17:38:34;26.02;;;20.65;;
33421;SDS011;19763;55.798;37.782;2022-09-30T17:41:00;27.67;;;20.63;;
33421;SDS011;19763;55.798;37.782;2022-09-30T17:43:44;26.73;;;22.13;;
33421;SDS011;19763;55.798;37.782;2022-09-30T17:46:11;28.35;;;22.73;;
33421;SDS011;19763;55.798;37.782;2022-09-30T17:48:38;25.25;;;21.58;;
33421;SDS011;19763;55.798;37.782;2022-09-30T17:51:03;31.10;;;24.02;;
33421;SDS011;19763;55.798;37.782;2022-09-30T17:53:30;29.75;;;24.25;;
33421;SDS011;19763;55.798;37.782;2022-09-30T17:56:00;34.45;;;25.55;;
33421;SDS011;19763;55.798;37.782;2022-09-30T17:58:28;29.42;;;22.75;;
33421;SDS011;19763;55.798;37.782;2022-09-30T18:00:53;28.15;;;21.33;;
33421;SDS011;19763;55.798;37.782;2022-09-30T18:03:22;26.77;;;23.27;;
33421;SDS011;19763;55.798;37.782;2022-09-30T18:05:55;26.27;;;22.88;;
33421;SDS011;19763;55.798;37.782;2022-09-30T18:08:22;28.02;;;21.42;;
33421;SDS011;19763;55.798;37.782;2022-09-30T18:10:49;29.73;;;22.58;;
33421;SDS011;19763;55.798;37.782;2022-09-30T18:13:16;28.80;;;22.20;;
33421;SDS011;19763;55.798;37.782;2022-09-30T18:15:43;27.45;;;21.60;;
33421;SDS011;19763;55.798;37.782;2022-09-30T18:18:10;25.08;;;21.95;;
33421;SDS011;19763;55.798;37.782;2022-09-30T18:20:41;25.67;;;21.33;;
33421;SDS011;19763;55.798;37.782;2022-09-30T18:23:10;27.75;;;21.63;;
33421;SDS011;19763;55.798;37.782;2022-09-30T18:25:36;26.08;;;20.40;;
33421;SDS011;19763;55.798;37.782;2022-09-30T18:28:04;26.08;;;21.25;;